Time;durP1;ratioP1;P1;durP2;ratioP2;P2;SDS_P1;SDS_P2;PMS_P1;PMS_P2;Temp;Humidity;BMP_temperature;BMP_pressure;BME280_temperature;BME280_humidity;BME280_pressure;Samples;Min_cycle;Max_cycle;Signal;HPM_P1;HPM_P2
2022/06/13 00:01:31;;;;;;;;;1.00;1.00;;;;;16.51;49.47;102062.44;5034378;28;51098;-83
2022/06/13 00:03:57;;;;;;;;;4.00;1.75;;;;;16.53;49.09;102073.78;5032384;28;45527;-84
2022/06/13 00:06:22;;;;;;;;;3.00;1.50;;;;;16.49;48.99;102072.16;5034031;28;45440;-83
2022/06/13 00:08:48;;;;;;;;;3.25;2.00;;;;;16.44;50.28;102069.69;5034195;28;45370;-84
2022/06/13 00:11:16;;;;;;;;;1.50;1.50;;;;;16.43;49.83;102079.31;5016443;28;45528;-84
2022/06/13 00:13:43;;;;;;;;;2.00;2.00;;;;;16.39;49.57;102075.09;5033078;28;45493;-84
2022/06/13 00:16:10;;;;;;;;;4.75;2.00;;;;;16.41;49.39;102073.25;5034296;28;45601;-84
2022/06/13 00:18:35;;;;;;;;;3.50;2.00;;;;;16.37;50.39;102071.66;5035811;28;45717;-84
2022/06/13 00:21:01;;;;;;;;;2.00;1.00;;;;;16.35;49.86;102065.59;5029694;28;45447;-84
2022/06/13 00:23:26;;;;;;;;;2.00;2.00;;;;;16.32;49.99;102063.03;5027795;28;45356;-84
2022/06/13 00:25:52;;;;;;;;;2.50;1.75;;;;;16.28;50.10;102074.56;5033360;28;71160;-84
2022/06/13 00:28:17;;;;;;;;;3.00;1.00;;;;;16.21;50.27;102068.66;5033456;28;68743;-84
2022/06/13 00:30:43;;;;;;;;;3.75;2.00;;;;;16.20;50.82;102069.56;5035556;28;60196;-84
2022/06/13 00:33:08;;;;;;;;;1.00;1.00;;;;;16.20;51.17;102073.97;5033457;28;45443;-84
2022/06/13 00:35:33;;;;;;;;;3.50;1.00;;;;;16.19;50.61;102062.56;5033258;28;54614;-84
2022/06/13 00:37:59;;;;;;;;;5.00;1.25;;;;;16.15;50.63;102055.69;5032860;28;45436;-84
2022/06/13 00:40:24;;;;;;;;;3.00;2.00;;;;;16.15;51.23;102062.72;5034172;28;45612;-84
2022/06/13 00:42:50;;;;;;;;;1.00;1.00;;;;;16.06;52.22;102059.50;5031136;28;49496;-84
2022/06/13 00:45:24;;;;;;;;;2.00;2.00;;;;;15.99;51.81;102060.59;5031562;28;59776;-84
2022/06/13 00:47:53;;;;;;;;;2.50;2.25;;;;;15.91;52.50;102049.44;5030420;28;45317;-84
2022/06/13 00:50:23;;;;;;;;;2.00;1.00;;;;;15.86;52.56;102057.47;5020712;28;45388;-84
2022/06/13 00:52:54;;;;;;;;;1.50;1.50;;;;;15.82;52.18;102061.09;5016557;28;47741;-84
2022/06/13 00:55:34;;;;;;;;;4.00;1.00;;;;;15.86;51.82;102053.97;5033766;28;46520;-84
2022/06/13 00:58:01;;;;;;;;;1.75;1.75;;;;;15.88;52.61;102049.56;5033658;28;45435;-84
2022/06/13 01:00:27;;;;;;;;;3.00;1.50;;;;;15.89;53.54;102046.00;5034264;28;45655;-84
2022/06/13 01:02:53;;;;;;;;;2.50;2.00;;;;;15.90;51.89;102044.22;5026563;28;45562;-84
2022/06/13 01:05:23;;;;;;;;;4.50;2.00;;;;;15.83;53.37;102043.56;5029017;28;46440;-84
2022/06/13 01:07:49;;;;;;;;;3.25;2.00;;;;;15.69;52.49;102038.69;5003836;28;46991;-84
2022/06/13 01:13:02;;;;;;;;;3.00;3.00;;;;;15.59;53.93;102043.34;5035724;28;45394;-84
2022/06/13 01:15:34;;;;;;;;;2.25;2.00;;;;;15.55;53.88;102041.72;5034127;28;45786;-84
2022/06/13 01:18:08;;;;;;;;;2.75;2.00;;;;;15.55;53.81;102041.72;5047292;28;46045;-84
2022/06/13 01:20:49;;;;;;;;;2.00;1.00;;;;;15.54;53.50;102034.75;5030513;28;45306;-84
2022/06/13 01:23:22;;;;;;;;;5.25;2.00;;;;;15.57;54.04;102034.66;5032690;28;45535;-84
2022/06/13 01:26:15;;;;;;;;;1.50;0.00;;;;;15.60;53.83;102034.59;5037575;28;45551;-84
2022/06/13 01:28:49;;;;;;;;;3.25;2.00;;;;;15.54;54.20;102024.25;5023211;28;45801;-84
2022/06/13 01:31:17;;;;;;;;;2.00;2.00;;;;;15.50;55.08;102030.50;5034991;28;45536;-84
2022/06/13 01:33:47;;;;;;;;;5.25;2.50;;;;;15.44;54.75;102030.69;5038765;28;45314;-84
2022/06/13 01:36:36;;;;;;;;;5.75;3.00;;;;;15.38;54.86;102036.09;5025556;28;46670;-84
2022/06/13 01:39:26;;;;;;;;;3.25;3.00;;;;;15.28;55.11;102030.25;5030772;28;45725;-84
2022/06/13 01:42:00;;;;;;;;;2.00;2.00;;;;;15.19;54.68;102023.50;5032293;28;45371;-84
2022/06/13 01:44:52;;;;;;;;;2.00;1.75;;;;;15.19;55.58;102033.13;5036310;28;45355;-84
2022/06/13 01:47:23;;;;;;;;;7.00;3.25;;;;;15.17;56.15;102038.41;5033410;28;46262;-84
2022/06/13 01:50:34;;;;;;;;;4.00;2.00;;;;;15.17;54.96;102043.66;5035354;28;45469;-84
2022/06/13 01:53:02;;;;;;;;;3.50;3.00;;;;;15.21;56.68;102039.19;4960109;28;45335;-84
2022/06/13 01:56:10;;;;;;;;;4.25;4.25;;;;;15.19;55.58;102039.25;4961194;28;45457;-83
2022/06/13 01:58:41;;;;;;;;;5.50;4.00;;;;;15.16;55.92;102041.94;4917870;28;47301;-83
2022/06/13 02:02:02;;;;;;;;;10.00;4.50;;;;;15.15;56.75;102042.84;4918278;28;45882;-84
2022/06/13 02:04:37;;;;;;;;;5.25;4.50;;;;;15.22;56.33;102043.53;4861446;29;45446;-84
2022/06/13 02:07:15;;;;;;;;;6.00;5.00;;;;;15.22;55.57;102033.03;4829259;29;45566;-84
2022/06/13 02:09:48;;;;;;;;;9.50;6.50;;;;;15.18;56.46;102032.28;4845794;29;45362;-84
2022/06/13 02:12:15;;;;;;;;;4.00;3.75;;;;;15.18;56.81;102031.41;4861136;29;45375;-84
2022/06/13 02:14:49;;;;;;;;;5.75;4.25;;;;;15.16;56.36;102038.47;4845358;29;45381;-84
2022/06/13 02:17:18;;;;;;;;;4.00;4.00;;;;;15.10;56.80;102035.09;4845631;29;45711;-84
2022/06/13 02:19:58;;;;;;;;;4.25;4.00;;;;;15.06;56.86;102035.22;4860607;29;46542;-83
2022/06/13 02:22:27;;;;;;;;;6.50;4.00;;;;;15.01;57.59;102026.63;4846964;29;45403;-84
2022/06/13 02:25:06;;;;;;;;;6.50;4.25;;;;;14.96;57.83;102025.91;4861392;29;45369;-84
2022/06/13 02:27:35;;;;;;;;;4.00;3.00;;;;;14.96;57.06;102033.75;4861344;29;45413;-84
2022/06/13 02:30:06;;;;;;;;;4.50;4.00;;;;;14.93;57.76;102028.59;4912656;28;47277;-83
2022/06/13 02:32:39;;;;;;;;;5.75;5.00;;;;;14.95;57.30;102026.78;4942765;28;45399;-84
2022/06/13 02:35:11;;;;;;;;;6.50;3.50;;;;;14.96;57.73;102034.59;4937303;28;45439;-84
2022/06/13 02:37:59;;;;;;;;;6.25;2.75;;;;;14.95;57.67;102037.28;4951951;28;45580;-84
2022/06/13 02:40:29;;;;;;;;;3.75;3.00;;;;;14.96;57.81;102028.50;4991025;28;45666;-84
2022/06/13 02:42:56;;;;;;;;;8.50;3.00;;;;;14.95;57.72;102034.66;5036707;28;45253;-84
2022/06/13 02:45:24;;;;;;;;;6.50;3.75;;;;;14.92;57.77;102029.50;5016511;28;45556;-84
2022/06/13 02:48:05;;;;;;;;;3.00;3.00;;;;;14.86;57.75;102034.00;5027919;28;45590;-83
2022/06/13 02:50:41;;;;;;;;;7.25;3.75;;;;;14.81;59.09;102027.16;5028449;28;46692;-84
2022/06/13 02:53:11;;;;;;;;;7.00;3.25;;;;;14.75;59.35;102028.19;5035473;28;45326;-84
2022/06/13 02:55:42;;;;;;;;;4.75;4.00;;;;;14.68;58.78;102024.00;5035997;28;45351;-84
2022/06/13 02:58:49;;;;;;;;;4.25;3.00;;;;;14.66;59.56;102025.78;5033354;28;45401;-83
2022/06/13 03:01:24;;;;;;;;;7.25;3.75;;;;;14.64;58.83;102030.22;5031393;28;47546;-83
2022/06/13 03:04:13;;;;;;;;;4.75;3.75;;;;;14.60;59.50;102029.44;5035897;28;45508;-84
2022/06/13 03:07:10;;;;;;;;;7.00;3.00;;;;;14.56;59.13;102032.13;5036213;28;45474;-83
2022/06/13 03:09:45;;;;;;;;;4.25;3.00;;;;;14.52;59.86;102036.56;5031506;28;45504;-83
2022/06/13 03:12:20;;;;;;;;;3.00;3.00;;;;;14.48;59.48;102038.41;5031419;28;45476;-83
2022/06/13 03:14:54;;;;;;;;;7.50;3.75;;;;;14.45;59.76;102045.47;5035218;28;46479;-83
2022/06/13 03:17:26;;;;;;;;;3.75;3.75;;;;;14.44;59.97;102054.25;5027910;28;45486;-84
2022/06/13 03:20:21;;;;;;;;;6.25;2.00;;;;;14.40;59.23;102042.97;5033893;28;45486;-83
2022/06/13 03:23:03;;;;;;;;;5.00;2.75;;;;;14.35;59.96;102050.09;5023078;28;46690;-84
2022/06/13 03:26:14;;;;;;;;;4.50;4.50;;;;;14.32;59.54;102052.78;5020450;28;45461;-83
2022/06/13 03:28:44;;;;;;;;;6.75;3.00;;;;;14.31;59.75;102056.28;5014270;28;45446;-84
2022/06/13 03:31:18;;;;;;;;;3.25;3.25;;;;;14.34;60.08;102058.84;4997296;28;45436;-84
2022/06/13 03:33:47;;;;;;;;;4.25;3.00;;;;;14.33;59.67;102057.97;4998322;28;45954;-83
2022/06/13 03:36:32;;;;;;;;;8.75;4.00;;;;;14.32;59.69;102064.13;4997458;28;45394;-84
2022/06/13 03:39:02;;;;;;;;;3.75;3.75;;;;;14.33;60.36;102065.81;5014499;28;45393;-84
2022/06/13 03:41:32;;;;;;;;;7.50;4.00;;;;;14.28;60.21;102062.47;4980789;28;45392;-84
2022/06/13 03:44:04;;;;;;;;;6.75;4.00;;;;;14.28;59.87;102070.34;5013876;28;45556;-83
2022/06/13 03:46:40;;;;;;;;;2.00;2.00;;;;;14.26;60.55;102079.09;4995813;28;45473;-83
2022/06/13 03:49:14;;;;;;;;;5.00;3.25;;;;;14.20;60.64;102074.03;4998181;28;45589;-84
2022/06/13 03:51:45;;;;;;;;;4.25;3.75;;;;;14.17;60.78;102076.69;4998316;28;45708;-83
2022/06/13 03:54:14;;;;;;;;;6.50;4.00;;;;;14.14;61.56;102075.03;4996654;28;45474;-82
2022/06/13 03:56:52;;;;;;;;;4.00;4.00;;;;;14.11;60.89;102073.34;5013277;28;45401;-84
2022/06/13 03:59:21;;;;;;;;;7.50;4.50;;;;;14.07;60.76;102066.44;4997227;28;45430;-84
2022/06/13 04:01:49;;;;;;;;;9.25;4.50;;;;;14.10;61.66;102062.91;4986577;28;45547;-84
2022/06/13 04:04:24;;;;;;;;;4.00;4.00;;;;;14.11;61.85;102070.72;5032914;28;48331;-84
2022/06/13 04:06:50;;;;;;;;;7.00;4.50;;;;;14.10;61.01;102062.91;5035113;28;45211;-84
2022/06/13 04:09:21;;;;;;;;;6.75;3.00;;;;;14.09;61.16;102074.25;5033121;28;45378;-84
2022/06/13 04:12:01;;;;;;;;;3.00;3.00;;;;;14.06;61.25;102069.97;5037473;28;45245;-83
2022/06/13 04:14:29;;;;;;;;;5.75;4.00;;;;;14.04;61.67;102078.72;5032306;28;46389;-84
2022/06/13 04:17:27;;;;;;;;;5.00;3.75;;;;;13.99;61.88;102075.38;5034055;28;45948;-84
2022/06/13 04:20:19;;;;;;;;;5.25;3.25;;;;;13.96;62.15;102073.66;5045391;28;45317;-83
2022/06/13 04:23:07;;;;;;;;;7.25;4.75;;;;;13.94;62.01;102075.44;5034573;28;45400;-83
2022/06/13 04:25:51;;;;;;;;;4.00;4.00;;;;;13.93;62.23;102069.38;5020186;28;46332;-84
2022/06/13 04:28:29;;;;;;;;;4.75;3.00;;;;;13.96;62.00;102078.03;5033200;28;46011;-84
2022/06/13 04:30:55;;;;;;;;;6.50;3.50;;;;;13.95;62.48;102085.03;5032341;28;45344;-84
2022/06/13 04:33:39;;;;;;;;;9.00;4.00;;;;;13.95;61.74;102082.44;5029535;28;61164;-83
2022/06/13 04:36:06;;;;;;;;;7.00;4.75;;;;;14.02;62.16;102080.53;5029404;28;47345;-84
2022/06/13 04:38:32;;;;;;;;;6.50;4.00;;;;;14.02;62.37;102073.53;5025431;28;45390;-84
2022/06/13 04:41:01;;;;;;;;;6.75;4.00;;;;;14.01;62.33;102084.91;5033169;28;67275;-83
2022/06/13 04:43:33;;;;;;;;;4.75;3.50;;;;;13.98;62.00;102082.34;5031969;28;45896;-84
2022/06/13 04:46:05;;;;;;;;;5.25;4.75;;;;;14.03;62.96;102082.25;5031110;28;46374;-84
2022/06/13 04:48:31;;;;;;;;;7.25;3.50;;;;;14.04;62.95;102083.97;5035996;28;45792;-83
2022/06/13 04:51:01;;;;;;;;;8.50;4.00;;;;;14.05;62.72;102083.94;5029026;28;61784;-83
2022/06/13 04:53:31;;;;;;;;;10.00;6.25;;;;;14.06;62.74;102088.28;5033601;28;45400;-83
2022/06/13 04:55:59;;;;;;;;;9.25;5.25;;;;;14.06;61.99;102077.81;5033745;28;46363;-83
2022/06/13 04:58:26;;;;;;;;;5.00;4.25;;;;;14.10;63.04;102091.69;5032058;28;45491;-83
2022/06/13 05:00:59;;;;;;;;;4.25;4.25;;;;;14.12;63.09;102095.16;5031243;28;45391;-83
2022/06/13 05:03:27;;;;;;;;;7.50;4.00;;;;;14.12;63.62;102103.00;5033802;28;45598;-83
2022/06/13 05:06:00;;;;;;;;;3.00;3.00;;;;;14.09;62.75;102093.44;5035225;28;46831;-83
2022/06/13 05:08:28;;;;;;;;;6.50;4.50;;;;;14.15;63.07;102102.91;5030188;28;45542;-83
2022/06/13 05:10:59;;;;;;;;;12.25;5.00;;;;;14.16;63.28;102095.94;5022640;28;45393;-83
2022/06/13 05:13:25;;;;;;;;;7.00;4.75;;;;;14.13;63.42;102102.97;5049379;28;45440;-83
2022/06/13 05:16:06;;;;;;;;;5.50;3.25;;;;;14.09;63.98;102101.28;5030087;28;70967;-83
2022/06/13 05:18:38;;;;;;;;;6.25;4.00;;;;;14.08;64.03;102096.97;5035738;28;45379;-83
2022/06/13 05:21:13;;;;;;;;;9.50;4.25;;;;;14.08;64.17;102103.97;5029434;28;45565;-83
2022/06/13 05:23:41;;;;;;;;;8.25;5.25;;;;;14.12;63.19;102106.47;5033371;28;45492;-83
2022/06/13 05:26:08;;;;;;;;;7.50;6.00;;;;;14.20;63.33;102111.53;5031736;28;46407;-83
2022/06/13 05:28:34;;;;;;;;;5.00;4.00;;;;;14.21;63.87;102109.78;5015430;28;45904;-83
2022/06/13 05:31:06;;;;;;;;;7.50;4.75;;;;;14.22;63.84;102114.13;5034688;28;45313;-83
2022/06/13 05:33:38;;;;;;;;;7.75;7.00;;;;;14.27;63.74;102112.28;5034316;28;45409;-83
2022/06/13 05:36:06;;;;;;;;;5.00;3.50;;;;;14.30;63.56;102118.31;5029723;28;45603;-83
2022/06/13 05:38:36;;;;;;;;;7.00;5.00;;;;;14.38;63.59;102119.91;5033903;28;45309;-83
2022/06/13 05:41:01;;;;;;;;;7.00;4.25;;;;;14.47;63.05;102117.06;5032385;28;45495;-83
2022/06/13 05:43:27;;;;;;;;;11.00;7.00;;;;;14.62;63.40;102123.72;5030994;28;52369;-83
2022/06/13 05:45:52;;;;;;;;;10.50;4.50;;;;;14.71;62.84;102118.28;5029718;28;62915;-83
2022/06/13 05:48:20;;;;;;;;;7.00;3.50;;;;;14.79;62.50;102121.56;5031663;28;67017;-85
2022/06/13 05:50:45;;;;;;;;;7.25;5.50;;;;;14.84;62.59;102124.06;5028310;28;45491;-83
2022/06/13 05:53:17;;;;;;;;;9.00;4.00;;;;;14.89;62.34;102123.06;5032150;28;63984;-85
2022/06/13 05:55:43;;;;;;;;;4.00;2.50;;;;;14.90;63.30;102121.28;5034442;28;46717;-85
2022/06/13 05:58:11;;;;;;;;;10.25;7.00;;;;;14.93;62.55;102129.06;5032912;28;70065;-86
2022/06/13 06:00:48;;;;;;;;;5.75;4.25;;;;;14.95;63.03;102123.78;5032802;28;45412;-85
2022/06/13 06:03:14;;;;;;;;;7.75;4.00;;;;;15.00;62.65;102129.78;5036030;28;45569;-86
2022/06/13 06:05:40;;;;;;;;;9.00;4.00;;;;;15.04;62.56;102131.41;5034098;28;46422;-85
2022/06/13 06:08:30;;;;;;;;;7.75;4.25;;;;;15.06;62.11;102138.38;5046115;28;45894;-85
2022/06/13 06:10:57;;;;;;;;;6.50;2.00;;;;;15.09;62.42;102133.03;5036242;28;45555;-86
2022/06/13 06:13:24;;;;;;;;;5.00;5.00;;;;;15.14;62.26;102139.94;5034127;28;45325;-85
2022/06/13 06:15:50;;;;;;;;;8.50;5.00;;;;;15.17;61.92;102126.72;5037996;28;46360;-85
2022/06/13 06:18:16;;;;;;;;;7.00;4.75;;;;;15.25;62.32;102135.28;5034726;28;46409;-85
2022/06/13 06:20:42;;;;;;;;;9.50;6.00;;;;;15.34;61.51;102142.03;5035594;28;45456;-86
2022/06/13 06:23:09;;;;;;;;;6.25;4.00;;;;;15.38;61.75;102147.16;5034772;28;45492;-86
2022/06/13 06:25:35;;;;;;;;;10.25;7.50;;;;;15.43;61.47;102153.16;5034367;28;49185;-86
2022/06/13 06:28:01;;;;;;;;;9.75;7.50;;;;;15.44;61.54;102148.75;5033531;28;45455;-85
2022/06/13 06:30:27;;;;;;;;;11.00;6.25;;;;;15.42;62.18;102145.31;5032793;28;45356;-85
2022/06/13 06:32:56;;;;;;;;;10.50;5.00;;;;;15.40;62.39;102147.97;5030851;28;46537;-85
2022/06/13 06:35:23;;;;;;;;;6.00;5.75;;;;;15.47;61.79;102143.41;5035017;28;47685;-85
2022/06/13 06:37:49;;;;;;;;;8.00;5.00;;;;;15.56;61.97;102151.03;5032323;28;45705;-84
2022/06/13 06:40:17;;;;;;;;;5.25;5.25;;;;;15.60;61.67;102150.06;5035552;28;45559;-84
2022/06/13 06:42:42;;;;;;;;;7.00;5.50;;;;;15.66;61.64;102152.50;5033095;28;45483;-84
2022/06/13 06:45:09;;;;;;;;;6.50;5.00;;;;;15.72;61.52;102158.50;5029191;28;69693;-87
2022/06/13 06:47:35;;;;;;;;;10.50;5.00;;;;;15.80;61.18;102161.78;5025462;28;45836;-87
2022/06/13 06:50:02;;;;;;;;;8.75;5.00;;;;;15.82;61.08;102155.63;5028419;28;45344;-88
2022/06/13 06:52:28;;;;;;;;;10.25;5.25;;;;;15.87;61.34;102156.31;5030916;28;45362;-88
2022/06/13 07:00:22;;;;;;;;;5.50;5.25;;;;;16.13;60.09;102165.22;5045056;28;45522;-87
2022/06/13 07:02:47;;;;;;;;;6.00;5.00;;;;;16.21;60.05;102158.00;5037953;28;45550;-87
2022/06/13 07:05:13;;;;;;;;;5.50;4.25;;;;;16.31;59.62;102176.09;5034458;28;68841;-86
2022/06/13 07:07:39;;;;;;;;;3.00;2.00;;;;;16.34;59.29;102170.72;5039787;28;45335;-87
2022/06/13 07:10:05;;;;;;;;;9.75;5.25;;;;;16.39;59.03;102166.22;5032554;28;46018;-85
2022/06/13 07:12:31;;;;;;;;;8.50;3.50;;;;;16.45;59.28;102169.53;5031886;28;45416;-85
2022/06/13 07:14:59;;;;;;;;;5.50;4.00;;;;;16.58;58.57;102166.50;5028536;28;46086;-95
2022/06/13 07:17:26;;;;;;;;;10.25;3.75;;;;;16.70;57.85;102165.25;5009510;28;45302;-91
2022/06/13 07:19:51;;;;;;;;;5.75;3.25;;;;;16.81;57.80;102166.63;5023382;28;45449;-89
2022/06/13 07:22:19;;;;;;;;;7.25;4.00;;;;;16.86;57.39;102165.63;5029335;28;45672;-91
2022/06/13 07:24:46;;;;;;;;;5.75;3.75;;;;;16.96;57.45;102164.44;5033525;28;48439;-89
2022/06/13 07:27:13;;;;;;;;;4.50;3.75;;;;;17.07;56.98;102167.56;5035025;28;45361;-87
2022/06/13 07:29:41;;;;;;;;;6.50;4.00;;;;;17.19;56.31;102176.81;5032988;28;45546;-90
2022/06/13 07:32:19;;;;;;;;;6.25;5.00;;;;;17.28;55.61;102165.13;5025339;28;45511;-84
2022/06/13 07:34:47;;;;;;;;;4.00;3.00;;;;;17.34;55.46;102170.16;5032301;28;46268;-85
2022/06/13 07:38:16;;;;;;;;;5.75;4.00;;;;;17.41;55.09;102163.78;5045843;28;45630;-84
2022/06/13 07:40:01;;;;;;;;;3.00;3.00;;;;;17.52;54.83;102163.41;5023017;28;45520;-84
2022/06/13 07:42:26;;;;;;;;;5.25;3.00;;;;;17.57;55.13;102166.75;5032531;28;45644;-84
2022/06/13 07:44:51;;;;;;;;;6.00;4.00;;;;;17.61;54.54;102165.72;5012514;28;71886;-84
2022/06/13 07:47:19;;;;;;;;;4.00;2.00;;;;;17.64;53.53;102168.22;5026814;28;61685;-84
2022/06/13 07:49:44;;;;;;;;;7.00;3.25;;;;;17.67;54.01;102167.28;5027918;28;68164;-83
2022/06/13 07:52:10;;;;;;;;;5.75;4.00;;;;;17.73;54.04;102161.78;5031461;28;60383;-85
2022/06/13 07:54:35;;;;;;;;;4.75;3.25;;;;;17.79;53.51;102165.06;5016594;28;55725;-84
2022/06/13 07:57:00;;;;;;;;;5.00;4.00;;;;;17.88;53.59;102163.03;5024812;28;64569;-84
2022/06/13 07:59:28;;;;;;;;;4.00;4.00;;;;;17.95;53.57;102170.63;5030379;28;64907;-84
2022/06/13 08:01:54;;;;;;;;;4.50;3.00;;;;;18.01;52.92;102168.69;5023722;28;45620;-85
2022/06/13 08:04:19;;;;;;;;;3.00;3.00;;;;;18.07;52.43;102174.59;5014341;28;69841;-85
2022/06/13 08:06:45;;;;;;;;;4.00;2.75;;;;;18.15;52.48;102176.94;5030669;28;64304;-84
2022/06/13 08:09:11;;;;;;;;;6.00;3.00;;;;;18.22;51.17;102178.44;5047146;28;45493;-84
2022/06/13 08:11:43;;;;;;;;;3.50;2.50;;;;;18.26;50.54;102174.75;5026566;28;45450;-84
2022/06/13 08:14:10;;;;;;;;;4.25;2.00;;;;;18.30;50.86;102168.44;5028324;28;45462;-85
2022/06/13 08:16:35;;;;;;;;;2.75;2.00;;;;;18.36;50.78;102173.47;5013490;28;46108;-83
2022/06/13 08:19:03;;;;;;;;;3.00;2.00;;;;;18.42;50.99;102176.78;5028885;28;56529;-84
2022/06/13 08:21:29;;;;;;;;;3.50;3.00;;;;;18.47;50.45;102172.19;5019829;28;45351;-84
2022/06/13 08:23:55;;;;;;;;;4.50;2.00;;;;;18.46;49.27;102173.09;5022661;28;51271;-84
2022/06/13 08:26:20;;;;;;;;;2.75;2.75;;;;;18.49;49.19;102168.56;5021179;28;50918;-85
2022/06/13 08:28:46;;;;;;;;;7.75;3.25;;;;;18.57;49.65;102176.19;5010790;28;45417;-85
2022/06/13 08:31:13;;;;;;;;;2.25;1.75;;;;;18.67;49.54;102176.69;5015901;28;45628;-84
2022/06/13 08:33:39;;;;;;;;;5.25;3.00;;;;;18.75;48.05;102180.72;5028002;28;46435;-84
2022/06/13 08:36:06;;;;;;;;;4.25;2.00;;;;;18.81;47.58;102173.50;5028287;28;45648;-84
2022/06/13 08:38:31;;;;;;;;;4.00;2.75;;;;;18.89;47.55;102176.72;5008451;28;45474;-84
2022/06/13 08:41:14;;;;;;;;;5.50;2.50;;;;;18.98;47.88;102176.34;5024298;28;45506;-85
2022/06/13 08:44:16;;;;;;;;;3.00;2.00;;;;;19.09;47.38;102176.75;5016942;28;45691;-84
2022/06/13 08:46:51;;;;;;;;;3.25;2.00;;;;;19.18;47.27;102172.84;5017140;28;45520;-85
2022/06/13 08:49:35;;;;;;;;;2.00;2.00;;;;;19.24;46.75;102163.78;5026802;28;46782;-84
2022/06/13 08:52:06;;;;;;;;;1.50;1.50;;;;;19.28;45.92;102165.41;5061386;28;45679;-83
2022/06/13 08:54:34;;;;;;;;;5.00;1.00;;;;;19.34;46.17;102173.06;5017448;28;46363;-84
2022/06/13 08:57:02;;;;;;;;;5.75;3.50;;;;;19.41;45.18;102173.63;5029437;28;45341;-84
2022/06/13 08:59:35;;;;;;;;;4.00;2.25;;;;;19.47;45.56;102178.66;5020697;28;46637;-84
2022/06/13 09:02:23;;;;;;;;;4.25;2.00;;;;;19.55;45.21;102171.25;5031215;28;45877;-85
2022/06/13 09:04:59;;;;;;;;;1.25;1.25;;;;;19.60;45.23;102169.28;5015601;28;45599;-85
2022/06/13 09:07:32;;;;;;;;;4.00;2.25;;;;;19.64;44.92;102177.91;5030493;28;45611;-84
2022/06/13 09:10:13;;;;;;;;;4.25;2.00;;;;;19.68;44.68;102175.06;5027187;28;45523;-84
2022/06/13 09:13:02;;;;;;;;;2.25;1.75;;;;;19.75;44.65;102178.31;5023815;28;45494;-84
2022/06/13 09:15:31;;;;;;;;;2.75;2.75;;;;;19.80;44.59;102176.34;5021294;28;45894;-83
2022/06/13 09:18:06;;;;;;;;;2.00;2.00;;;;;19.76;44.01;102176.53;5013019;28;45504;-84
2022/06/13 09:20:47;;;;;;;;;3.25;3.00;;;;;19.76;44.32;102172.13;5029878;28;45553;-84
2022/06/13 09:23:34;;;;;;;;;8.50;3.25;;;;;19.84;43.57;102167.34;5022589;28;45560;-82
2022/06/13 09:26:09;;;;;;;;;4.25;3.00;;;;;19.89;44.06;102172.41;5029186;28;45556;-84
2022/06/13 09:28:48;;;;;;;;;4.25;4.00;;;;;19.96;43.62;102178.28;5019625;28;45440;-83
2022/06/13 09:31:37;;;;;;;;;2.00;2.00;;;;;20.06;43.22;102177.78;5045718;28;45424;-83
2022/06/13 09:34:08;;;;;;;;;5.00;2.00;;;;;20.19;42.77;102174.56;5033809;28;45373;-83
2022/06/13 09:36:36;;;;;;;;;5.25;2.00;;;;;20.25;42.88;102167.22;5032058;28;46399;-84
2022/06/13 09:39:08;;;;;;;;;6.50;2.00;;;;;20.40;43.05;102170.06;5038053;28;46038;-86
2022/06/13 09:41:51;;;;;;;;;2.50;2.50;;;;;20.48;42.10;102163.47;5041271;28;45330;-84
2022/06/13 09:44:41;;;;;;;;;4.75;3.00;;;;;20.56;41.66;102173.69;5032939;28;45442;-85
2022/06/13 09:47:16;;;;;;;;;3.25;1.75;;;;;20.55;41.44;102174.63;5028632;28;46345;-84
2022/06/13 09:50:10;;;;;;;;;2.00;2.00;;;;;20.53;41.23;102176.47;5029966;28;45626;-85
2022/06/13 09:52:57;;;;;;;;;4.25;2.50;;;;;20.60;41.19;102183.22;5030287;28;45559;-83
2022/06/13 09:55:33;;;;;;;;;3.00;1.25;;;;;20.66;40.52;102179.44;5035747;28;45563;-82
2022/06/13 09:58:12;;;;;;;;;2.00;2.00;;;;;20.71;40.17;102177.41;5034483;28;45880;-86
2022/06/13 10:00:43;;;;;;;;;4.25;2.00;;;;;20.70;39.88;102175.69;5020941;28;45305;-85
2022/06/13 10:03:15;;;;;;;;;2.00;2.00;;;;;20.66;39.41;102175.00;5022789;28;45567;-88
2022/06/13 10:05:54;;;;;;;;;3.00;1.75;;;;;20.62;39.46;102168.13;5030849;28;45524;-85
2022/06/13 10:08:51;;;;;;;;;2.00;2.00;;;;;20.63;39.48;102174.28;5032026;28;45578;-87
2022/06/13 10:11:38;;;;;;;;;3.00;3.00;;;;;20.65;39.91;102169.75;5031427;28;45711;-83
2022/06/13 10:14:30;;;;;;;;;3.00;2.00;;;;;20.73;39.96;102164.97;5024530;28;45383;-88
2022/06/13 10:17:14;;;;;;;;;3.00;2.00;;;;;20.82;39.88;102158.34;5022759;28;45430;-88
2022/06/13 10:19:58;;;;;;;;;5.00;3.00;;;;;20.91;40.21;102171.13;5026355;28;45529;-82
2022/06/13 10:22:32;;;;;;;;;5.00;3.00;;;;;20.96;39.77;102166.47;5034180;28;45511;-85
2022/06/13 10:25:03;;;;;;;;;4.25;2.25;;;;;21.03;39.21;102172.31;5032971;28;45377;-84
2022/06/13 10:27:39;;;;;;;;;4.00;2.00;;;;;21.10;39.19;102168.44;5030588;28;45514;-85
2022/06/13 10:30:32;;;;;;;;;3.75;2.00;;;;;21.11;39.50;102164.84;5034762;28;45491;-86
2022/06/13 10:33:15;;;;;;;;;4.00;2.75;;;;;21.17;40.30;102159.25;5026277;28;45375;-84
2022/06/13 10:35:54;;;;;;;;;1.50;1.50;;;;;21.32;39.03;102164.66;5027246;28;45519;-83
2022/06/13 10:38:50;;;;;;;;;5.25;2.00;;;;;21.49;39.16;102161.16;5031338;28;45479;-84
2022/06/13 10:41:16;;;;;;;;;4.00;3.00;;;;;21.58;38.49;102165.97;5019984;28;45523;-83
2022/06/13 10:43:42;;;;;;;;;3.25;3.00;;;;;21.64;39.36;102153.28;5028383;28;62691;-82
2022/06/13 10:46:11;;;;;;;;;3.75;1.75;;;;;21.86;39.02;102157.44;5032664;28;45456;-81
2022/06/13 10:48:46;;;;;;;;;2.25;2.25;;;;;21.99;38.42;102158.47;5030547;28;45617;-82
2022/06/13 10:51:12;;;;;;;;;2.50;2.50;;;;;22.06;37.62;102152.81;5031865;28;46425;-80
2022/06/13 10:53:58;;;;;;;;;5.00;2.00;;;;;22.09;37.77;102160.63;5032093;28;45872;-80
2022/06/13 10:56:33;;;;;;;;;3.00;2.75;;;;;22.12;37.11;102147.19;5029910;28;45513;-82
2022/06/13 10:58:59;;;;;;;;;4.75;3.00;;;;;22.19;37.55;102149.44;5030602;28;45602;-79
2022/06/13 11:01:28;;;;;;;;;3.00;2.50;;;;;22.29;37.09;102151.56;5030906;28;69379;-80
2022/06/13 11:04:06;;;;;;;;;3.25;2.50;;;;;22.37;37.03;102147.56;5032925;28;45414;-80
2022/06/13 11:06:36;;;;;;;;;2.75;2.50;;;;;22.44;37.00;102150.72;5033018;28;45441;-80
2022/06/13 11:09:04;;;;;;;;;1.50;1.50;;;;;22.52;36.73;102147.63;5031495;28;45436;-80
2022/06/13 11:11:33;;;;;;;;;2.00;2.00;;;;;22.59;36.37;102152.50;5031439;28;45507;-81
2022/06/13 11:13:59;;;;;;;;;3.00;2.25;;;;;22.73;36.86;102142.88;5030618;28;45791;-80
2022/06/13 11:22:39;;;;;;;;;2.25;2.25;;;;;23.59;36.06;102140.44;4964346;28;46256;-82
2022/06/13 11:25:16;;;;;;;;;1.25;1.25;;;;;24.05;36.45;102132.25;4967447;28;45652;-82
2022/06/13 11:27:42;;;;;;;;;4.50;2.75;;;;;24.45;35.88;102139.44;4969309;28;45466;-82
2022/06/13 11:30:25;;;;;;;;;3.50;2.00;;;;;25.18;34.60;102144.31;4954166;28;45539;-83
2022/06/13 11:33:09;;;;;;;;;2.00;1.75;;;;;28.69;31.15;102143.63;4970538;28;46501;-82
2022/06/13 11:35:49;;;;;;;;;2.75;2.00;;;;;32.75;28.60;102145.63;4969615;28;45549;-82
2022/06/13 11:38:27;;;;;;;;;5.25;2.00;;;;;35.79;25.32;102143.44;4968547;28;45446;-83
2022/06/13 11:40:58;;;;;;;;;3.75;2.00;;;;;38.40;22.14;102150.91;4952827;28;45680;-83
2022/06/13 11:43:33;;;;;;;;;5.75;1.00;;;;;40.35;18.89;102159.97;4968255;28;45497;-83
2022/06/13 11:46:00;;;;;;;;;2.00;1.50;;;;;41.78;19.32;102156.53;4969209;28;45507;-83
2022/06/13 11:48:26;;;;;;;;;3.00;2.50;;;;;42.98;17.88;102158.38;4970291;28;45546;-81
2022/06/13 11:50:56;;;;;;;;;3.50;2.25;;;;;43.93;16.41;102154.22;4949113;28;48957;-80
2022/06/13 11:53:37;;;;;;;;;2.25;1.75;;;;;44.20;13.95;102168.38;4960442;28;45360;-80
2022/06/13 11:56:31;;;;;;;;;2.50;1.25;;;;;43.91;15.29;102156.38;4968897;28;45344;-80
2022/06/13 11:59:02;;;;;;;;;1.50;1.50;;;;;44.21;13.47;102155.50;5006154;28;45520;-81
2022/06/13 12:01:38;;;;;;;;;4.00;1.00;;;;;44.40;14.50;102154.31;5027961;28;45733;-81
2022/06/13 12:04:12;;;;;;;;;1.00;1.00;;;;;44.23;14.83;102137.72;5031051;28;46018;-80
2022/06/13 12:06:49;;;;;;;;;1.25;1.00;;;;;43.97;14.94;102138.13;5032015;28;45888;-81